sensor_id;sensor_type;location;lat;lon;timestamp;pressure;altitude;pressure_sealevel;temperature;humidity
20624;BME280;10471;42.736;23.346;2023-07-08T00:01:11;95795.06;;;19.13;100.00
20624;BME280;10471;42.736;23.346;2023-07-08T00:03:38;95793.63;;;18.99;100.00
20624;BME280;10471;42.736;23.346;2023-07-08T00:06:03;95790.97;;;19.07;100.00
20624;BME280;10471;42.736;23.346;2023-07-08T00:08:28;95784.69;;;19.03;100.00
20624;BME280;10471;42.736;23.346;2023-07-08T00:10:54;95782.66;;;19.00;100.00
20624;BME280;10471;42.736;23.346;2023-07-08T00:13:19;95777.78;;;18.94;100.00
20624;BME280;10471;42.736;23.346;2023-07-08T00:15:45;95774.94;;;18.90;100.00
20624;BME280;10471;42.736;23.346;2023-07-08T00:18:15;95776.22;;;18.84;100.00
20624;BME280;10471;42.736;23.346;2023-07-08T00:20:44;95770.91;;;18.84;100.00
20624;BME280;10471;42.736;23.346;2023-07-08T00:23:10;95768.84;;;18.81;100.00
20624;BME280;10471;42.736;23.346;2023-07-08T00:25:36;95767.25;;;18.80;100.00
20624;BME280;10471;42.736;23.346;2023-07-08T00:28:02;95762.09;;;18.75;100.00
20624;BME280;10471;42.736;23.346;2023-07-08T00:30:30;95767.44;;;18.75;100.00
20624;BME280;10471;42.736;23.346;2023-07-08T00:32:57;95758.97;;;18.73;100.00
20624;BME280;10471;42.736;23.346;2023-07-08T00:35:32;95768.06;;;18.72;100.00
20624;BME280;10471;42.736;23.346;2023-07-08T00:37:58;95772.47;;;18.68;100.00
20624;BME280;10471;42.736;23.346;2023-07-08T00:40:29;95777.34;;;18.75;100.00
20624;BME280;10471;42.736;23.346;2023-07-08T00:42:55;95777.19;;;18.71;100.00
20624;BME280;10471;42.736;23.346;2023-07-08T00:45:49;95774.50;;;18.71;100.00
20624;BME280;10471;42.736;23.346;2023-07-08T00:48:24;95770.25;;;18.70;100.00
20624;BME280;10471;42.736;23.346;2023-07-08T00:50:51;95764.47;;;18.68;100.00
20624;BME280;10471;42.736;23.346;2023-07-08T00:55:55;95757.06;;;18.65;100.00
20624;BME280;10471;42.736;23.346;2023-07-08T00:58:23;95750.19;;;18.56;100.00
20624;BME280;10471;42.736;23.346;2023-07-08T01:00:51;95749.88;;;18.57;100.00
20624;BME280;10471;42.736;23.346;2023-07-08T01:03:18;95748.13;;;18.53;100.00
20624;BME280;10471;42.736;23.346;2023-07-08T01:05:46;95743.09;;;18.43;100.00
20624;BME280;10471;42.736;23.346;2023-07-08T01:08:12;95743.44;;;18.42;100.00
20624;BME280;10471;42.736;23.346;2023-07-08T01:10:43;95738.41;;;18.40;100.00
20624;BME280;10471;42.736;23.346;2023-07-08T01:13:11;95734.63;;;18.41;100.00
20624;BME280;10471;42.736;23.346;2023-07-08T01:15:42;95736.66;;;18.36;100.00
20624;BME280;10471;42.736;23.346;2023-07-08T01:18:09;95734.16;;;18.31;100.00
20624;BME280;10471;42.736;23.346;2023-07-08T01:20:36;95731.81;;;18.29;100.00
20624;BME280;10471;42.736;23.346;2023-07-08T01:23:02;95728.50;;;18.32;100.00
20624;BME280;10471;42.736;23.346;2023-07-08T01:25:27;95727.09;;;18.26;100.00
20624;BME280;10471;42.736;23.346;2023-07-08T01:27:54;95726.78;;;18.28;100.00
20624;BME280;10471;42.736;23.346;2023-07-08T01:30:21;95731.34;;;18.36;100.00
20624;BME280;10471;42.736;23.346;2023-07-08T01:32:55;95733.69;;;18.29;100.00
20624;BME280;10471;42.736;23.346;2023-07-08T01:35:21;95723.66;;;18.34;100.00
20624;BME280;10471;42.736;23.346;2023-07-08T01:38:01;95727.25;;;18.30;100.00
20624;BME280;10471;42.736;23.346;2023-07-08T01:40:31;95731.50;;;18.22;100.00
20624;BME280;10471;42.736;23.346;2023-07-08T01:42:58;95730.88;;;18.25;100.00
20624;BME280;10471;42.736;23.346;2023-07-08T01:45:26;95725.38;;;18.22;100.00
20624;BME280;10471;42.736;23.346;2023-07-08T01:47:55;95736.06;;;18.22;100.00
20624;BME280;10471;42.736;23.346;2023-07-08T01:50:23;95730.22;;;18.20;100.00
20624;BME280;10471;42.736;23.346;2023-07-08T01:52:50;95722.03;;;18.16;100.00
20624;BME280;10471;42.736;23.346;2023-07-08T01:55:22;95718.59;;;18.16;100.00
20624;BME280;10471;42.736;23.346;2023-07-08T01:57:51;95721.13;;;18.21;100.00
20624;BME280;10471;42.736;23.346;2023-07-08T02:00:16;95724.88;;;18.20;100.00
20624;BME280;10471;42.736;23.346;2023-07-08T02:02:42;95721.59;;;18.23;100.00
20624;BME280;10471;42.736;23.346;2023-07-08T02:05:07;95732.56;;;18.21;100.00
20624;BME280;10471;42.736;23.346;2023-07-08T02:07:33;95729.72;;;18.18;100.00
20624;BME280;10471;42.736;23.346;2023-07-08T02:09:58;95728.78;;;18.14;100.00
20624;BME280;10471;42.736;23.346;2023-07-08T02:12:24;95745.59;;;18.14;100.00
20624;BME280;10471;42.736;23.346;2023-07-08T02:14:49;95743.22;;;18.13;100.00
20624;BME280;10471;42.736;23.346;2023-07-08T02:17:14;95743.22;;;18.13;100.00
20624;BME280;10471;42.736;23.346;2023-07-08T02:19:42;95751.38;;;18.08;100.00
20624;BME280;10471;42.736;23.346;2023-07-08T02:22:08;95742.91;;;18.06;100.00
20624;BME280;10471;42.736;23.346;2023-07-08T02:24:33;95736.63;;;18.02;100.00
20624;BME280;10471;42.736;23.346;2023-07-08T02:26:58;95747.31;;;18.02;100.00
20624;BME280;10471;42.736;23.346;2023-07-08T02:29:25;95748.41;;;18.01;100.00
20624;BME280;10471;42.736;23.346;2023-07-08T02:31:51;95754.81;;;18.00;100.00
20624;BME280;10471;42.736;23.346;2023-07-08T02:34:16;95760.75;;;17.97;100.00
20624;BME280;10471;42.736;23.346;2023-07-08T02:36:41;95754.19;;;18.03;100.00
20624;BME280;10471;42.736;23.346;2023-07-08T02:39:07;95761.25;;;18.07;100.00
20624;BME280;10471;42.736;23.346;2023-07-08T02:41:32;95765.81;;;18.07;100.00
20624;BME280;10471;42.736;23.346;2023-07-08T02:43:57;95762.66;;;18.05;100.00
20624;BME280;10471;42.736;23.346;2023-07-08T02:46:23;95769.25;;;17.99;100.00
20624;BME280;10471;42.736;23.346;2023-07-08T02:48:48;95771.00;;;18.03;100.00
20624;BME280;10471;42.736;23.346;2023-07-08T02:51:13;95772.06;;;17.94;100.00
20624;BME280;10471;42.736;23.346;2023-07-08T02:53:39;95776.91;;;17.92;100.00
20624;BME280;10471;42.736;23.346;2023-07-08T02:56:04;95777.69;;;17.84;100.00
20624;BME280;10471;42.736;23.346;2023-07-08T02:58:30;95777.38;;;17.85;100.00
20624;BME280;10471;42.736;23.346;2023-07-08T03:00:56;95774.53;;;17.82;100.00
20624;BME280;10471;42.736;23.346;2023-07-08T03:03:26;95773.59;;;17.78;100.00
20624;BME280;10471;42.736;23.346;2023-07-08T03:06:04;95776.88;;;17.75;100.00
20624;BME280;10471;42.736;23.346;2023-07-08T03:08:30;95771.06;;;17.73;100.00
20624;BME280;10471;42.736;23.346;2023-07-08T03:11:02;95772.66;;;17.74;100.00
20624;BME280;10471;42.736;23.346;2023-07-08T03:13:29;95776.56;;;17.76;100.00
20624;BME280;10471;42.736;23.346;2023-07-08T03:15:55;95778.94;;;17.78;100.00
20624;BME280;10471;42.736;23.346;2023-07-08T03:18:21;95777.53;;;17.80;100.00
20624;BME280;10471;42.736;23.346;2023-07-08T03:20:48;95774.53;;;17.82;100.00
20624;BME280;10471;42.736;23.346;2023-07-08T03:23:14;95778.31;;;17.81;100.00
20624;BME280;10471;42.736;23.346;2023-07-08T03:25:39;95780.50;;;17.79;100.00
20624;BME280;10471;42.736;23.346;2023-07-08T03:28:06;95772.34;;;17.84;100.00
20624;BME280;10471;42.736;23.346;2023-07-08T03:30:34;95774.53;;;17.82;100.00
20624;BME280;10471;42.736;23.346;2023-07-08T03:33:00;95779.41;;;17.80;100.00
20624;BME280;10471;42.736;23.346;2023-07-08T03:35:25;95773.13;;;17.84;100.00
20624;BME280;10471;42.736;23.346;2023-07-08T03:37:52;95771.91;;;17.90;100.00
20624;BME280;10471;42.736;23.346;2023-07-08T03:40:17;95765.78;;;17.90;100.00
20624;BME280;10471;42.736;23.346;2023-07-08T03:42:43;95768.91;;;17.92;100.00
20624;BME280;10471;42.736;23.346;2023-07-08T03:45:08;95764.56;;;17.96;100.00
20624;BME280;10471;42.736;23.346;2023-07-08T03:47:34;95764.06;;;17.94;100.00
20624;BME280;10471;42.736;23.346;2023-07-08T03:49:59;95766.09;;;17.97;100.00
20624;BME280;10471;42.736;23.346;2023-07-08T03:52:25;95771.75;;;17.95;100.00
20624;BME280;10471;42.736;23.346;2023-07-08T03:54:50;95772.84;;;17.94;100.00
20624;BME280;10471;42.736;23.346;2023-07-08T03:57:15;95761.56;;;17.97;100.00
20624;BME280;10471;42.736;23.346;2023-07-08T03:59:41;95772.06;;;17.94;100.00
20624;BME280;10471;42.736;23.346;2023-07-08T04:02:10;95766.09;;;17.97;100.00
20624;BME280;10471;42.736;23.346;2023-07-08T04:04:35;95768.66;;;18.02;100.00
20624;BME280;10471;42.736;23.346;2023-07-08T04:07:03;95759.53;;;18.11;100.00
20624;BME280;10471;42.736;23.346;2023-07-08T04:09:29;95757.56;;;18.25;100.00
20624;BME280;10471;42.736;23.346;2023-07-08T04:11:54;95768.09;;;18.30;100.00
20624;BME280;10471;42.736;23.346;2023-07-08T04:14:19;95779.03;;;18.29;100.00
20624;BME280;10471;42.736;23.346;2023-07-08T04:16:51;95776.72;;;18.36;100.00
20624;BME280;10471;42.736;23.346;2023-07-08T04:19:18;95784.22;;;18.34;100.00
20624;BME280;10471;42.736;23.346;2023-07-08T04:21:44;95777.19;;;18.38;100.00
20624;BME280;10471;42.736;23.346;2023-07-08T04:24:14;95780.31;;;18.40;100.00
20624;BME280;10471;42.736;23.346;2023-07-08T04:26:41;95772.00;;;18.49;100.00
20624;BME280;10471;42.736;23.346;2023-07-08T04:29:10;95780.66;;;18.55;100.00
20624;BME280;10471;42.736;23.346;2023-07-08T04:31:36;95778.28;;;18.62;100.00
20624;BME280;10471;42.736;23.346;2023-07-08T04:34:01;95778.44;;;18.65;100.00
20624;BME280;10471;42.736;23.346;2023-07-08T04:36:27;95783.00;;;18.65;100.00
20624;BME280;10471;42.736;23.346;2023-07-08T04:38:52;95786.94;;;18.76;100.00
20624;BME280;10471;42.736;23.346;2023-07-08T04:41:18;95783.16;;;18.68;100.00
20624;BME280;10471;42.736;23.346;2023-07-08T04:43:43;95793.19;;;18.80;100.00
20624;BME280;10471;42.736;23.346;2023-07-08T04:49:08;95792.88;;;18.90;100.00
20624;BME280;10471;42.736;23.346;2023-07-08T04:51:37;95787.69;;;19.02;100.00
20624;BME280;10471;42.736;23.346;2023-07-08T04:54:03;95792.88;;;19.15;100.00
20624;BME280;10471;42.736;23.346;2023-07-08T04:56:37;95788.78;;;19.09;100.00
20624;BME280;10471;42.736;23.346;2023-07-08T04:59:04;95795.38;;;19.11;100.00
20624;BME280;10471;42.736;23.346;2023-07-08T05:01:30;95790.81;;;19.12;100.00
20624;BME280;10471;42.736;23.346;2023-07-08T05:03:56;95796.78;;;19.17;100.00
20624;BME280;10471;42.736;23.346;2023-07-08T05:06:21;95794.28;;;19.21;100.00
20624;BME280;10471;42.736;23.346;2023-07-08T05:08:46;95794.38;;;19.33;100.00
20624;BME280;10471;42.736;23.346;2023-07-08T05:11:12;95806.06;;;19.20;100.00
20624;BME280;10471;42.736;23.346;2023-07-08T05:13:37;95796.88;;;19.38;100.00
20624;BME280;10471;42.736;23.346;2023-07-08T05:16:03;95809.34;;;19.25;100.00
20624;BME280;10471;42.736;23.346;2023-07-08T05:18:28;95808.38;;;19.38;100.00
20624;BME280;10471;42.736;23.346;2023-07-08T05:20:55;95807.41;;;19.43;100.00
20624;BME280;10471;42.736;23.346;2023-07-08T05:23:21;95804.44;;;19.44;100.00
20624;BME280;10471;42.736;23.346;2023-07-08T05:25:47;95822.34;;;19.44;100.00
20624;BME280;10471;42.736;23.346;2023-07-08T05:28:16;95821.66;;;19.64;100.00
20624;BME280;10471;42.736;23.346;2023-07-08T05:30:41;95810.38;;;19.87;100.00
20624;BME280;10471;42.736;23.346;2023-07-08T05:33:08;95801.72;;;19.98;100.00
20624;BME280;10471;42.736;23.346;2023-07-08T05:35:34;95820.38;;;20.07;100.00
20624;BME280;10471;42.736;23.346;2023-07-08T05:37:59;95801.88;;;20.22;100.00
20624;BME280;10471;42.736;23.346;2023-07-08T05:40:25;95821.81;;;20.33;100.00
20624;BME280;10471;42.736;23.346;2023-07-08T05:42:50;95815.41;;;20.46;100.00
20624;BME280;10471;42.736;23.346;2023-07-08T05:45:16;95839.81;;;20.53;100.00
20624;BME280;10471;42.736;23.346;2023-07-08T05:47:41;95826.06;;;20.54;100.00
20624;BME280;10471;42.736;23.346;2023-07-08T05:50:07;95837.13;;;20.33;100.00
20624;BME280;10471;42.736;23.346;2023-07-08T05:52:32;95838.59;;;20.22;100.00
20624;BME280;10471;42.736;23.346;2023-07-08T05:54:57;95840.38;;;20.09;100.00
20624;BME280;10471;42.736;23.346;2023-07-08T05:57:23;95848.56;;;20.04;100.00
20624;BME280;10471;42.736;23.346;2023-07-08T05:59:49;95834.28;;;20.00;100.00
20624;BME280;10471;42.736;23.346;2023-07-08T06:02:16;95837.03;;;20.21;100.00
20624;BME280;10471;42.736;23.346;2023-07-08T06:04:41;95832.19;;;20.14;100.00
20624;BME280;10471;42.736;23.346;2023-07-08T06:07:07;95842.09;;;20.14;100.00
20624;BME280;10471;42.736;23.346;2023-07-08T06:09:33;95844.25;;;20.20;100.00
20624;BME280;10471;42.736;23.346;2023-07-08T06:12:00;95845.38;;;20.19;100.00
20624;BME280;10471;42.736;23.346;2023-07-08T06:14:27;95844.81;;;20.34;100.00
20624;BME280;10471;42.736;23.346;2023-07-08T06:16:53;95851.13;;;20.30;100.00
20624;BME280;10471;42.736;23.346;2023-07-08T06:19:20;95843.53;;;20.40;100.00
20624;BME280;10471;42.736;23.346;2023-07-08T06:21:49;95846.31;;;20.43;100.00
20624;BME280;10471;42.736;23.346;2023-07-08T06:24:32;95846.34;;;20.64;100.00
20624;BME280;10471;42.736;23.346;2023-07-08T06:26:58;95847.91;;;20.65;100.00
20624;BME280;10471;42.736;23.346;2023-07-08T06:29:23;95862.16;;;20.57;100.00
20624;BME280;10471;42.736;23.346;2023-07-08T06:31:49;95849.22;;;20.59;100.00
20624;BME280;10471;42.736;23.346;2023-07-08T06:34:14;95859.41;;;20.45;100.00
20624;BME280;10471;42.736;23.346;2023-07-08T06:36:40;95856.72;;;20.45;100.00
20624;BME280;10471;42.736;23.346;2023-07-08T06:39:05;95862.66;;;20.50;100.00
20624;BME280;10471;42.736;23.346;2023-07-08T06:41:33;95856.66;;;20.53;100.00
20624;BME280;10471;42.736;23.346;2023-07-08T06:43:58;95855.63;;;20.66;100.00
20624;BME280;10471;42.736;23.346;2023-07-08T06:46:24;95857.41;;;20.83;100.00
20624;BME280;10471;42.736;23.346;2023-07-08T06:48:49;95852.41;;;21.02;100.00
20624;BME280;10471;42.736;23.346;2023-07-08T06:51:15;95867.50;;;20.86;100.00
20624;BME280;10471;42.736;23.346;2023-07-08T06:53:40;95855.75;;;20.78;100.00
20624;BME280;10471;42.736;23.346;2023-07-08T06:56:06;95853.19;;;20.82;100.00
20624;BME280;10471;42.736;23.346;2023-07-08T06:58:31;95856.84;;;20.77;100.00
20624;BME280;10471;42.736;23.346;2023-07-08T07:00:57;95856.31;;;20.84;100.00
20624;BME280;10471;42.736;23.346;2023-07-08T07:03:24;95860.09;;;20.83;100.00
20624;BME280;10471;42.736;23.346;2023-07-08T07:05:49;95862.16;;;20.86;100.00
20624;BME280;10471;42.736;23.346;2023-07-08T07:08:15;95867.22;;;20.79;100.00
20624;BME280;10471;42.736;23.346;2023-07-08T07:10:40;95861.53;;;20.80;100.00
20624;BME280;10471;42.736;23.346;2023-07-08T07:13:05;95870.22;;;20.98;100.00
20624;BME280;10471;42.736;23.346;2023-07-08T07:15:31;95867.81;;;21.05;100.00
20624;BME280;10471;42.736;23.346;2023-07-08T07:17:57;95868.06;;;21.11;100.00
20624;BME280;10471;42.736;23.346;2023-07-08T07:20:23;95867.94;;;21.28;100.00
20624;BME280;10471;42.736;23.346;2023-07-08T07:22:49;95876.91;;;21.44;100.00
20624;BME280;10471;42.736;23.346;2023-07-08T07:25:15;95885.50;;;21.58;100.00
20624;BME280;10471;42.736;23.346;2023-07-08T07:27:40;95880.94;;;21.50;100.00
20624;BME280;10471;42.736;23.346;2023-07-08T07:30:06;95895.59;;;21.73;100.00
20624;BME280;10471;42.736;23.346;2023-07-08T07:32:31;95891.13;;;21.77;100.00
20624;BME280;10471;42.736;23.346;2023-07-08T07:34:59;95899.22;;;21.89;100.00
20624;BME280;10471;42.736;23.346;2023-07-08T07:37:25;95892.84;;;22.05;100.00
20624;BME280;10471;42.736;23.346;2023-07-08T07:39:50;95886.69;;;21.93;100.00
20624;BME280;10471;42.736;23.346;2023-07-08T07:42:18;95894.41;;;21.82;100.00
20624;BME280;10471;42.736;23.346;2023-07-08T07:44:44;95880.00;;;21.99;100.00
20624;BME280;10471;42.736;23.346;2023-07-08T07:47:10;95883.22;;;21.92;100.00
20624;BME280;10471;42.736;23.346;2023-07-08T07:49:35;95886.81;;;21.96;100.00
20624;BME280;10471;42.736;23.346;2023-07-08T07:52:01;95882.25;;;22.09;100.00
20624;BME280;10471;42.736;23.346;2023-07-08T07:54:27;95886.03;;;22.08;100.00
20624;BME280;10471;42.736;23.346;2023-07-08T07:56:53;95893.25;;;22.28;100.00
20624;BME280;10471;42.736;23.346;2023-07-08T07:59:18;95886.06;;;22.55;100.00
20624;BME280;10471;42.736;23.346;2023-07-08T08:01:44;95880.34;;;22.69;100.00
20624;BME280;10471;42.736;23.346;2023-07-08T08:04:10;95888.75;;;22.43;100.00
20624;BME280;10471;42.736;23.346;2023-07-08T08:06:36;95888.53;;;22.48;100.00
20624;BME280;10471;42.736;23.346;2023-07-08T08:09:03;95892.25;;;22.32;100.00
20624;BME280;10471;42.736;23.346;2023-07-08T08:11:28;95892.47;;;22.27;100.00
20624;BME280;10471;42.736;23.346;2023-07-08T08:13:54;95894.03;;;22.40;100.00
20624;BME280;10471;42.736;23.346;2023-07-08T08:16:20;95895.59;;;22.41;100.00
20624;BME280;10471;42.736;23.346;2023-07-08T08:18:46;95899.50;;;22.67;100.00
20624;BME280;10471;42.736;23.346;2023-07-08T08:21:12;95909.72;;;22.38;100.00
20624;BME280;10471;42.736;23.346;2023-07-08T08:23:37;95895.81;;;22.60;100.00
20624;BME280;10471;42.736;23.346;2023-07-08T08:26:02;95895.72;;;22.56;100.00
20624;BME280;10471;42.736;23.346;2023-07-08T08:28:28;95903.75;;;22.80;100.00
20624;BME280;10471;42.736;23.346;2023-07-08T08:30:54;95904.72;;;22.88;100.00
20624;BME280;10471;42.736;23.346;2023-07-08T08:33:19;95911.09;;;22.95;100.00
20624;BME280;10471;42.736;23.346;2023-07-08T08:35:45;95900.81;;;22.97;100.00
20624;BME280;10471;42.736;23.346;2023-07-08T08:38:11;95896.00;;;23.03;100.00
20624;BME280;10471;42.736;23.346;2023-07-08T08:40:36;95890.47;;;23.11;100.00
20624;BME280;10471;42.736;23.346;2023-07-08T08:43:07;95885.06;;;23.23;100.00
20624;BME280;10471;42.736;23.346;2023-07-08T08:48:27;95896.25;;;22.86;100.00
20624;BME280;10471;42.736;23.346;2023-07-08T08:50:59;95887.47;;;22.89;100.00
20624;BME280;10471;42.736;23.346;2023-07-08T08:53:26;95886.03;;;22.79;100.00
20624;BME280;10471;42.736;23.346;2023-07-08T08:55:57;95890.97;;;22.89;100.00
20624;BME280;10471;42.736;23.346;2023-07-08T09:01:02;95909.28;;;23.50;99.48
20624;BME280;10471;42.736;23.346;2023-07-08T09:03:49;95895.91;;;23.38;97.32
20624;BME280;10471;42.736;23.346;2023-07-08T09:06:31;95895.00;;;23.34;100.00
20624;BME280;10471;42.736;23.346;2023-07-08T09:09:02;95898.97;;;23.52;99.76
20624;BME280;10471;42.736;23.346;2023-07-08T09:11:51;95887.53;;;23.28;96.95
20624;BME280;10471;42.736;23.346;2023-07-08T09:14:20;95883.81;;;23.32;97.75
20624;BME280;10471;42.736;23.346;2023-07-08T09:19:31;95885.16;;;23.54;99.95
20624;BME280;10471;42.736;23.346;2023-07-08T09:25:46;95889.78;;;23.80;99.10
20624;BME280;10471;42.736;23.346;2023-07-08T09:27:37;95879.28;;;23.64;99.75
20624;BME280;10471;42.736;23.346;2023-07-08T09:30:03;95870.69;;;23.58;97.23
20624;BME280;10471;42.736;23.346;2023-07-08T09:32:29;95868.88;;;23.35;100.00
20624;BME280;10471;42.736;23.346;2023-07-08T09:35:01;95876.34;;;23.69;100.00
20624;BME280;10471;42.736;23.346;2023-07-08T09:37:29;95876.81;;;23.86;97.77
20624;BME280;10471;42.736;23.346;2023-07-08T09:39:57;95871.38;;;23.82;94.52
20624;BME280;10471;42.736;23.346;2023-07-08T09:42:30;95863.91;;;23.91;97.65
20624;BME280;10471;42.736;23.346;2023-07-08T09:44:58;95865.72;;;24.03;95.10
20624;BME280;10471;42.736;23.346;2023-07-08T09:47:27;95856.25;;;23.93;91.18
20624;BME280;10471;42.736;23.346;2023-07-08T09:49:58;95847.41;;;24.08;92.98
20624;BME280;10471;42.736;23.346;2023-07-08T09:52:28;95858.06;;;24.20;88.63
20624;BME280;10471;42.736;23.346;2023-07-08T09:54:54;95856.84;;;24.18;90.87
20624;BME280;10471;42.736;23.346;2023-07-08T09:57:31;95846.16;;;24.37;92.66
20624;BME280;10471;42.736;23.346;2023-07-08T10:00:02;95847.19;;;24.32;88.95
20624;BME280;10471;42.736;23.346;2023-07-08T10:04:57;95851.81;;;24.47;92.42
20624;BME280;10471;42.736;23.346;2023-07-08T10:07:29;95846.94;;;24.37;89.79
20624;BME280;10471;42.736;23.346;2023-07-08T10:09:57;95834.84;;;24.31;89.86
20624;BME280;10471;42.736;23.346;2023-07-08T10:12:23;95826.72;;;24.62;92.01
20624;BME280;10471;42.736;23.346;2023-07-08T10:14:56;95833.72;;;24.32;89.98
20624;BME280;10471;42.736;23.346;2023-07-08T10:17:23;95831.22;;;24.39;92.08
20624;BME280;10471;42.736;23.346;2023-07-08T10:19:49;95831.13;;;24.36;91.32
20624;BME280;10471;42.736;23.346;2023-07-08T10:28:37;95822.25;;;24.85;85.54
20624;BME280;10471;42.736;23.346;2023-07-08T10:34:17;95819.44;;;25.15;81.50
20624;BME280;10471;42.736;23.346;2023-07-08T10:39:52;95821.72;;;25.32;75.00
20624;BME280;10471;42.736;23.346;2023-07-08T10:45:26;95807.91;;;25.79;76.50
20624;BME280;10471;42.736;23.346;2023-07-08T10:50:49;95810.19;;;25.35;84.43
20624;BME280;10471;42.736;23.346;2023-07-08T10:53:41;95797.97;;;26.05;80.90
20624;BME280;10471;42.736;23.346;2023-07-08T10:56:31;95800.69;;;26.31;75.32
20624;BME280;10471;42.736;23.346;2023-07-08T11:04:24;95792.50;;;25.79;73.60
20624;BME280;10471;42.736;23.346;2023-07-08T11:07:16;95794.63;;;25.70;73.15
20624;BME280;10471;42.736;23.346;2023-07-08T11:09:57;95789.72;;;25.53;75.38
20624;BME280;10471;42.736;23.346;2023-07-08T11:15:02;95775.16;;;25.61;71.64
20624;BME280;10471;42.736;23.346;2023-07-08T11:17:40;95776.84;;;25.47;76.28
20624;BME280;10471;42.736;23.346;2023-07-08T11:26:57;95770.16;;;25.82;70.03
20624;BME280;10471;42.736;23.346;2023-07-08T11:28:58;95779.88;;;25.64;71.63
20624;BME280;10471;42.736;23.346;2023-07-08T11:31:25;95768.59;;;25.81;73.64
20624;BME280;10471;42.736;23.346;2023-07-08T11:33:53;95755.97;;;26.11;68.23
20624;BME280;10471;42.736;23.346;2023-07-08T11:36:21;95766.94;;;25.73;70.63
20624;BME280;10471;42.736;23.346;2023-07-08T11:38:53;95758.19;;;25.61;72.79
20624;BME280;10471;42.736;23.346;2023-07-08T11:41:20;95764.63;;;25.75;68.52
20624;BME280;10471;42.736;23.346;2023-07-08T11:43:56;95771.34;;;25.62;72.46
20624;BME280;10471;42.736;23.346;2023-07-08T11:46:25;95772.09;;;25.82;70.33
20624;BME280;10471;42.736;23.346;2023-07-08T11:48:54;95769.31;;;25.37;69.39
20624;BME280;10471;42.736;23.346;2023-07-08T11:51:25;95771.28;;;25.81;73.16
20624;BME280;10471;42.736;23.346;2023-07-08T11:59:16;95766.47;;;26.16;72.11
20624;BME280;10471;42.736;23.346;2023-07-08T12:01:54;95767.75;;;26.25;72.23
20624;BME280;10471;42.736;23.346;2023-07-08T12:04:55;95775.69;;;26.63;68.57
20624;BME280;10471;42.736;23.346;2023-07-08T12:07:21;95769.25;;;26.74;69.07
20624;BME280;10471;42.736;23.346;2023-07-08T12:12:35;95774.13;;;26.62;69.00
20624;BME280;10471;42.736;23.346;2023-07-08T12:15:11;95769.50;;;26.95;67.65
20624;BME280;10471;42.736;23.346;2023-07-08T12:17:38;95772.78;;;26.78;66.72
20624;BME280;10471;42.736;23.346;2023-07-08T12:20:18;95769.31;;;26.26;68.58
20624;BME280;10471;42.736;23.346;2023-07-08T12:22:43;95774.94;;;26.37;70.72
20624;BME280;10471;42.736;23.346;2023-07-08T12:25:13;95769.06;;;26.35;69.58
20624;BME280;10471;42.736;23.346;2023-07-08T12:27:41;95768.88;;;26.47;71.95
20624;BME280;10471;42.736;23.346;2023-07-08T12:30:09;95760.75;;;26.72;65.33
20624;BME280;10471;42.736;23.346;2023-07-08T12:32:36;95755.97;;;26.11;68.59
20624;BME280;10471;42.736;23.346;2023-07-08T12:35:02;95750.03;;;26.02;69.49
20624;BME280;10471;42.736;23.346;2023-07-08T12:37:30;95755.13;;;26.07;69.17
20624;BME280;10471;42.736;23.346;2023-07-08T12:39:56;95743.41;;;25.99;67.71
20624;BME280;10471;42.736;23.346;2023-07-08T12:42:28;95751.72;;;26.36;67.98
20624;BME280;10471;42.736;23.346;2023-07-08T12:44:54;95757.66;;;26.45;67.10
20624;BME280;10471;42.736;23.346;2023-07-08T12:47:20;95747.56;;;26.16;70.59
20624;BME280;10471;42.736;23.346;2023-07-08T12:49:46;95738.81;;;26.26;69.79
20624;BME280;10471;42.736;23.346;2023-07-08T12:52:37;95733.25;;;26.70;64.83
20624;BME280;10471;42.736;23.346;2023-07-08T12:55:03;95741.59;;;26.88;64.59
20624;BME280;10471;42.736;23.346;2023-07-08T12:57:29;95740.34;;;27.11;65.42
20624;BME280;10471;42.736;23.346;2023-07-08T12:59:55;95743.47;;;27.13;63.85
20624;BME280;10471;42.736;23.346;2023-07-08T13:02:21;95747.56;;;27.33;60.07
20624;BME280;10471;42.736;23.346;2023-07-08T13:04:51;95751.13;;;27.08;62.34
20624;BME280;10471;42.736;23.346;2023-07-08T13:07:34;95750.59;;;27.28;63.83
20624;BME280;10471;42.736;23.346;2023-07-08T13:10:02;95758.81;;;27.02;63.48
20624;BME280;10471;42.736;23.346;2023-07-08T13:12:28;95743.00;;;27.08;60.70
20624;BME280;10471;42.736;23.346;2023-07-08T13:14:55;95766.03;;;27.24;61.23
20624;BME280;10471;42.736;23.346;2023-07-08T13:17:22;95754.19;;;27.39;62.23
20624;BME280;10471;42.736;23.346;2023-07-08T13:19:48;95756.97;;;27.46;61.23
20624;BME280;10471;42.736;23.346;2023-07-08T13:22:19;95763.28;;;27.20;60.28
20624;BME280;10471;42.736;23.346;2023-07-08T13:24:45;95762.81;;;27.15;61.85
20624;BME280;10471;42.736;23.346;2023-07-08T13:27:22;95756.03;;;27.68;61.61
20624;BME280;10471;42.736;23.346;2023-07-08T13:29:55;95758.25;;;27.95;60.63
20624;BME280;10471;42.736;23.346;2023-07-08T13:32:30;95745.44;;;27.52;58.00
20624;BME280;10471;42.736;23.346;2023-07-08T13:34:56;95739.00;;;27.31;59.92
20624;BME280;10471;42.736;23.346;2023-07-08T13:37:22;95743.34;;;27.03;60.00
20624;BME280;10471;42.736;23.346;2023-07-08T13:39:52;95740.28;;;27.04;62.20
20624;BME280;10471;42.736;23.346;2023-07-08T13:42:18;95744.59;;;27.45;62.29
20624;BME280;10471;42.736;23.346;2023-07-08T13:44:45;95749.25;;;27.48;59.13
20624;BME280;10471;42.736;23.346;2023-07-08T13:47:25;95754.34;;;27.20;60.01